Time;durP1;ratioP1;P1;durP2;ratioP2;P2;SDS_P1;SDS_P2;PMS_P1;PMS_P2;Temp;Humidity;BMP_temperature;BMP_pressure;BME280_temperature;BME280_humidity;BME280_pressure;Samples;Min_cycle;Max_cycle;Signal;HPM_P1;HPM_P2
2023/05/24 00:01:02;;;;;;;6.57;3.72;;;9.40;99.90;;;;;;5068968;28;20036;-62
2023/05/24 00:03:33;;;;;;;9.48;3.92;;;9.40;99.90;;;;;;5069541;28;20028;-62
2023/05/24 00:06:05;;;;;;;8.82;3.85;;;9.50;99.90;;;;;;5070963;28;20453;-61
2023/05/24 00:08:34;;;;;;;4.95;3.17;;;9.70;99.90;;;;;;5079620;28;20078;-62
2023/05/24 00:11:01;;;;;;;9.85;3.67;;;9.90;99.90;;;;;;5088569;28;20031;-61
2023/05/24 00:13:29;;;;;;;9.80;3.90;;;10.00;99.90;;;;;;5078283;28;20032;-60
2023/05/24 00:15:56;;;;;;;7.80;3.90;;;10.10;99.90;;;;;;5076806;28;20040;-63
2023/05/24 00:18:25;;;;;;;7.43;3.50;;;10.30;99.90;;;;;;5078716;28;20024;-62
2023/05/24 00:20:55;;;;;;;6.63;3.90;;;10.50;99.90;;;;;;5081976;28;20032;-61
2023/05/24 00:23:24;;;;;;;6.45;3.78;;;10.70;99.90;;;;;;5077030;28;20408;-61
2023/05/24 00:25:52;;;;;;;7.43;3.17;;;10.80;99.90;;;;;;5077063;28;20028;-61
2023/05/24 00:28:20;;;;;;;9.65;3.30;;;11.00;99.90;;;;;;5084126;28;20070;-62
2023/05/24 00:30:47;;;;;;;8.18;3.95;;;11.20;99.90;;;;;;5075112;28;20074;-62
2023/05/24 00:33:14;;;;;;;8.88;3.85;;;11.30;99.90;;;;;;5072202;28;20683;-61
2023/05/24 00:35:42;;;;;;;9.98;6.32;;;11.40;99.90;;;;;;5071566;28;20509;-61
2023/05/24 00:38:09;;;;;;;8.95;5.40;;;11.70;99.90;;;;;;5073998;28;20020;-61
2023/05/24 00:40:37;;;;;;;8.88;4.45;;;11.80;99.90;;;;;;5091768;28;20026;-62
2023/05/24 00:43:04;;;;;;;7.15;3.70;;;11.90;99.90;;;;;;5090397;28;20023;-62
2023/05/24 00:45:32;;;;;;;8.35;3.95;;;12.00;99.90;;;;;;5075010;28;20060;-60
2023/05/24 00:47:59;;;;;;;5.93;3.13;;;12.20;99.90;;;;;;5087096;28;20441;-62
2023/05/24 00:50:27;;;;;;;6.97;3.05;;;12.30;99.90;;;;;;5078253;28;20046;-62
2023/05/24 00:52:55;;;;;;;8.02;2.97;;;12.40;99.90;;;;;;5081189;28;20056;-62
2023/05/24 00:55:23;;;;;;;9.32;3.55;;;12.50;99.90;;;;;;5076759;28;20067;-61
2023/05/24 00:57:53;;;;;;;5.38;3.05;;;12.70;99.90;;;;;;5059786;28;20028;-61
2023/05/24 01:00:22;;;;;;;9.05;3.10;;;12.90;99.90;;;;;;5084681;28;20530;-63
2023/05/24 01:02:50;;;;;;;12.15;2.40;;;12.90;99.90;;;;;;5094722;28;20024;-61
2023/05/24 01:05:22;;;;;;;10.98;3.10;;;13.00;99.90;;;;;;5086945;28;20028;-61
2023/05/24 01:08:06;;;;;;;7.25;2.65;;;13.10;99.90;;;;;;5073983;28;20078;-62
2023/05/24 01:10:43;;;;;;;8.75;3.13;;;13.30;99.90;;;;;;5077831;28;20016;-63
2023/05/24 01:13:23;;;;;;;7.78;2.90;;;13.30;99.90;;;;;;5065533;28;20556;-62
2023/05/24 01:16:16;;;;;;;6.90;3.22;;;13.50;99.90;;;;;;5068363;28;20034;-63
2023/05/24 01:18:56;;;;;;;5.88;2.80;;;13.70;99.90;;;;;;5068251;28;20020;-63
2023/05/24 01:21:47;;;;;;;9.95;3.35;;;13.80;99.90;;;;;;5072098;28;20118;-63
2023/05/24 01:24:18;;;;;;;6.72;2.47;;;13.80;99.90;;;;;;5072114;28;20024;-62
2023/05/24 01:27:08;;;;;;;6.22;2.42;;;13.80;99.90;;;;;;5073943;28;20029;-61
2023/05/24 01:29:36;;;;;;;5.85;2.40;;;14.00;99.90;;;;;;5082409;28;20089;-61
2023/05/24 01:32:04;;;;;;;6.65;2.42;;;14.10;99.90;;;;;;5070439;28;20070;-61
2023/05/24 01:34:32;;;;;;;4.80;2.17;;;14.10;99.90;;;;;;5071861;28;20060;-62
2023/05/24 01:36:59;;;;;;;7.00;2.30;;;14.20;99.90;;;;;;5073943;28;20388;-62
2023/05/24 01:39:29;;;;;;;6.65;1.85;;;14.30;99.90;;;;;;5070982;28;20032;-62
2023/05/24 01:42:14;;;;;;;5.20;1.90;;;14.50;99.90;;;;;;5075316;28;20060;-60
2023/05/24 01:45:15;;;;;;;7.20;2.38;;;14.50;99.90;;;;;;5077911;28;20397;-59
2023/05/24 01:48:17;;;;;;;5.60;2.25;;;14.60;99.90;;;;;;5076069;28;20017;-59
2023/05/24 01:50:59;;;;;;;7.80;2.70;;;14.70;99.90;;;;;;5074143;28;20039;-63
2023/05/24 01:53:33;;;;;;;8.23;2.95;;;14.80;99.90;;;;;;5072567;28;20040;-63
2023/05/24 01:56:04;;;;;;;6.25;2.33;;;14.80;99.90;;;;;;5078941;28;20021;-64
2023/05/24 01:58:33;;;;;;;11.75;2.55;;;14.90;99.90;;;;;;5082551;28;20620;-64
2023/05/24 02:01:01;;;;;;;12.80;2.88;;;15.00;99.90;;;;;;5081527;28;20123;-62
2023/05/24 02:03:29;;;;;;;7.40;2.80;;;15.10;99.90;;;;;;5075383;28;20035;-65
2023/05/24 02:05:56;;;;;;;6.15;2.40;;;15.30;99.90;;;;;;5078390;28;20377;-65
2023/05/24 02:08:24;;;;;;;5.80;2.67;;;15.30;99.90;;;;;;5074226;28;20369;-65
2023/05/24 02:10:51;;;;;;;9.85;3.08;;;15.40;99.90;;;;;;5079849;28;20050;-65
2023/05/24 02:13:19;;;;;;;12.45;2.90;;;15.50;99.90;;;;;;5081386;28;20032;-65
2023/05/24 02:15:47;;;;;;;14.70;3.47;;;15.60;99.90;;;;;;5074259;28;20032;-65
2023/05/24 02:18:17;;;;;;;9.18;2.58;;;15.70;99.90;;;;;;5075899;28;20020;-65
2023/05/24 02:20:45;;;;;;;5.03;2.47;;;15.80;99.90;;;;;;5061239;28;20025;-64
2023/05/24 02:23:13;;;;;;;9.10;2.95;;;15.90;99.90;;;;;;5079406;28;20017;-65
2023/05/24 02:25:40;;;;;;;8.20;3.03;;;16.00;99.90;;;;;;5058525;28;20025;-64
2023/05/24 02:28:08;;;;;;;6.60;2.60;;;16.10;99.90;;;;;;5076356;28;20482;-65
2023/05/24 02:30:37;;;;;;;7.78;2.55;;;16.20;99.90;;;;;;5076375;28;20028;-65
2023/05/24 02:33:04;;;;;;;5.03;2.92;;;16.30;99.90;;;;;;5089217;28;20039;-65
2023/05/24 02:35:33;;;;;;;6.80;2.03;;;16.40;99.90;;;;;;5090434;28;20034;-66
2023/05/24 02:38:02;;;;;;;9.20;2.80;;;16.50;99.90;;;;;;5093294;28;20032;-65
2023/05/24 02:40:29;;;;;;;13.27;2.83;;;16.60;99.90;;;;;;5059722;28;20032;-65
2023/05/24 02:42:57;;;;;;;6.97;2.10;;;16.70;99.90;;;;;;5061777;28;20025;-65
2023/05/24 02:45:24;;;;;;;6.47;2.70;;;16.80;99.90;;;;;;5082883;28;20028;-64
2023/05/24 02:47:52;;;;;;;4.75;1.92;;;17.00;99.60;;;;;;5078254;28;20047;-65
2023/05/24 02:50:19;;;;;;;6.95;2.47;;;17.00;99.20;;;;;;5075472;28;20016;-65
2023/05/24 02:52:47;;;;;;;9.32;3.08;;;17.00;99.10;;;;;;5087413;28;20052;-65
2023/05/24 02:55:15;;;;;;;5.20;2.00;;;17.10;94.50;;;;;;5076980;28;20059;-65
2023/05/24 02:57:42;;;;;;;6.70;2.30;;;17.10;93.10;;;;;;5078963;28;20032;-65
2023/05/24 03:00:10;;;;;;;10.07;2.38;;;17.10;93.90;;;;;;5075931;28;20386;-65
2023/05/24 03:02:39;;;;;;;8.07;2.38;;;17.20;94.60;;;;;;5080442;28;20496;-64
2023/05/24 03:05:07;;;;;;;6.75;2.22;;;17.30;94.90;;;;;;5080891;28;20033;-65
2023/05/24 03:07:35;;;;;;;19.23;2.80;;;17.40;93.90;;;;;;5065138;28;20042;-65
2023/05/24 03:10:03;;;;;;;7.97;2.40;;;17.50;95.30;;;;;;5079194;28;20028;-65
2023/05/24 03:12:30;;;;;;;4.82;1.90;;;17.50;95.50;;;;;;5062491;28;20028;-65
2023/05/24 03:14:58;;;;;;;7.40;2.33;;;17.60;93.90;;;;;;5080421;28;20067;-65
2023/05/24 03:17:25;;;;;;;4.68;1.98;;;17.70;94.60;;;;;;5074501;28;20446;-65
2023/05/24 03:19:53;;;;;;;6.25;2.30;;;17.80;91.40;;;;;;5085485;28;20031;-66
2023/05/24 03:22:20;;;;;;;7.32;2.58;;;17.80;89.20;;;;;;5079992;28;20021;-63
2023/05/24 03:24:48;;;;;;;6.25;3.38;;;17.80;90.30;;;;;;5078450;28;20389;-62
2023/05/24 03:27:15;;;;;;;12.38;2.08;;;17.90;91.30;;;;;;5081295;28;20052;-62
2023/05/24 03:29:43;;;;;;;3.92;2.00;;;18.00;88.30;;;;;;5076610;28;20032;-62
2023/05/24 03:32:10;;;;;;;6.22;2.90;;;18.10;89.80;;;;;;5081128;28;20044;-62
2023/05/24 03:34:37;;;;;;;7.15;2.08;;;18.10;88.30;;;;;;5073199;28;20040;-61
2023/05/24 03:37:05;;;;;;;6.53;1.75;;;18.10;85.00;;;;;;5089974;28;20035;-61
2023/05/24 03:39:32;;;;;;;8.07;2.42;;;18.10;86.90;;;;;;5086937;28;20153;-63
2023/05/24 03:42:00;;;;;;;10.10;1.85;;;18.20;86.60;;;;;;5074734;28;20035;-61
2023/05/24 03:44:27;;;;;;;5.65;1.67;;;18.10;86.70;;;;;;5085358;28;20492;-62
2023/05/24 03:46:55;;;;;;;9.52;2.67;;;18.10;86.40;;;;;;5072061;28;20016;-63
2023/05/24 03:49:22;;;;;;;7.53;2.28;;;18.10;88.60;;;;;;5078456;28;20043;-61
2023/05/24 03:51:50;;;;;;;6.40;1.75;;;18.20;89.00;;;;;;5088115;28;20039;-61
2023/05/24 03:54:17;;;;;;;5.05;1.45;;;18.20;82.80;;;;;;5075541;28;20019;-65
2023/05/24 03:56:45;;;;;;;7.20;2.00;;;18.20;84.20;;;;;;5082919;28;20481;-62
2023/05/24 03:59:12;;;;;;;5.60;2.00;;;18.20;86.00;;;;;;5083196;28;20523;-64
2023/05/24 04:01:40;;;;;;;7.65;1.77;;;18.30;87.40;;;;;;5074864;28;20126;-66
2023/05/24 04:04:07;;;;;;;13.43;2.13;;;18.30;87.20;;;;;;5106955;28;20023;-65
2023/05/24 04:06:35;;;;;;;5.53;1.50;;;18.30;88.90;;;;;;5084307;28;20052;-66
2023/05/24 04:09:04;;;;;;;9.25;1.80;;;18.30;85.50;;;;;;5080385;28;20123;-60
2023/05/24 04:11:32;;;;;;;8.35;1.60;;;18.30;86.60;;;;;;5089564;28;20059;-61
2023/05/24 04:14:00;;;;;;;6.57;1.98;;;18.30;86.70;;;;;;5076173;28;20109;-61
2023/05/24 04:16:28;;;;;;;8.77;2.17;;;18.40;86.20;;;;;;5080623;28;20032;-61
2023/05/24 04:18:56;;;;;;;3.20;1.40;;;18.40;86.70;;;;;;5087578;28;20036;-61
2023/05/24 04:21:24;;;;;;;4.90;1.50;;;18.40;86.20;;;;;;5074616;28;20029;-61
2023/05/24 04:23:51;;;;;;;5.55;2.35;;;18.40;85.60;;;;;;5082107;28;20453;-61
2023/05/24 04:26:20;;;;;;;7.22;1.80;;;18.40;83.40;;;;;;5073302;28;20545;-62
2023/05/24 04:28:47;;;;;;;4.03;1.50;;;18.40;80.70;;;;;;5072470;28;20078;-61
2023/05/24 04:31:15;;;;;;;7.43;1.73;;;18.40;79.90;;;;;;5067892;28;20021;-61
2023/05/24 04:33:42;;;;;;;6.13;2.33;;;18.30;79.00;;;;;;5071163;28;20477;-61
2023/05/24 04:36:10;;;;;;;7.55;1.60;;;18.30;79.20;;;;;;5073155;28;20150;-62
2023/05/24 04:38:39;;;;;;;5.47;2.13;;;18.20;81.40;;;;;;5082466;28;20028;-61
2023/05/24 04:41:07;;;;;;;12.15;1.95;;;18.20;80.00;;;;;;5075621;28;20350;-61
2023/05/24 04:43:34;;;;;;;12.07;2.00;;;18.20;80.70;;;;;;5060889;28;20020;-61
2023/05/24 04:46:02;;;;;;;6.57;2.42;;;18.20;78.60;;;;;;5074628;28;20028;-61
2023/05/24 04:48:29;;;;;;;9.13;1.90;;;18.20;79.50;;;;;;5057233;28;20028;-60
2023/05/24 04:50:57;;;;;;;6.32;1.73;;;18.10;79.00;;;;;;5054430;28;20029;-60
2023/05/24 04:53:25;;;;;;;11.50;2.05;;;18.10;78.80;;;;;;5071175;28;20040;-60
2023/05/24 04:55:53;;;;;;;8.25;1.80;;;18.20;76.00;;;;;;5073681;28;20514;-59
2023/05/24 04:58:20;;;;;;;4.55;1.67;;;18.20;76.80;;;;;;5079775;28;20026;-60
2023/05/24 05:00:48;;;;;;;7.15;1.85;;;18.10;76.00;;;;;;5076863;28;20032;-59
2023/05/24 05:03:15;;;;;;;6.25;1.83;;;18.10;77.90;;;;;;5081453;28;20028;-59
2023/05/24 05:05:44;;;;;;;9.60;1.95;;;18.00;78.20;;;;;;5085387;28;20687;-59
2023/05/24 05:08:12;;;;;;;5.30;1.73;;;18.00;78.20;;;;;;5083844;28;20115;-59
2023/05/24 05:10:41;;;;;;;7.72;1.98;;;18.00;78.80;;;;;;5071040;28;20808;-59
2023/05/24 05:13:08;;;;;;;3.65;1.65;;;18.00;77.70;;;;;;5079156;28;20489;-60
2023/05/24 05:15:36;;;;;;;7.43;1.77;;;17.90;74.70;;;;;;5090929;28;20066;-60
2023/05/24 05:18:03;;;;;;;4.80;1.83;;;17.80;74.10;;;;;;5093200;28;20020;-59
2023/05/24 05:20:30;;;;;;;5.68;1.73;;;17.80;76.60;;;;;;5084513;28;20066;-59
2023/05/24 05:22:58;;;;;;;5.03;1.73;;;17.70;75.30;;;;;;5077742;28;20692;-59
2023/05/24 05:25:25;;;;;;;5.78;1.92;;;17.70;75.70;;;;;;5077174;28;20036;-59
2023/05/24 05:27:53;;;;;;;5.82;1.90;;;17.60;74.60;;;;;;5082006;28;20059;-63
2023/05/24 05:30:20;;;;;;;9.48;1.98;;;17.60;72.60;;;;;;5069629;28;20039;-60
2023/05/24 05:32:48;;;;;;;8.75;2.63;;;17.50;71.30;;;;;;5066972;28;20366;-59
2023/05/24 05:35:15;;;;;;;4.13;2.08;;;17.50;70.50;;;;;;5078591;28;20032;-59
2023/05/24 05:37:43;;;;;;;5.82;1.52;;;17.40;72.60;;;;;;5074857;28;20433;-60
2023/05/24 05:40:11;;;;;;;6.82;1.83;;;17.30;74.30;;;;;;5057385;28;20031;-58
2023/05/24 05:42:38;;;;;;;4.55;1.92;;;17.30;73.30;;;;;;5077546;28;20024;-58
2023/05/24 05:45:06;;;;;;;9.60;2.97;;;17.20;72.70;;;;;;5077298;28;20020;-59
2023/05/24 05:47:34;;;;;;;5.80;1.77;;;17.10;72.10;;;;;;5072418;28;20029;-56
2023/05/24 05:50:01;;;;;;;3.50;1.73;;;17.00;73.10;;;;;;5080153;28;20039;-59
2023/05/24 05:52:28;;;;;;;6.25;1.98;;;17.00;74.10;;;;;;5080682;28;20072;-58
2023/05/24 05:54:56;;;;;;;11.80;2.15;;;16.90;74.80;;;;;;5062475;28;20097;-52
2023/05/24 05:57:23;;;;;;;8.75;3.35;;;16.80;75.40;;;;;;5075022;28;20030;-59
2023/05/24 05:59:51;;;;;;;4.53;1.75;;;16.80;73.10;;;;;;5052750;28;20036;-57
2023/05/24 06:02:21;;;;;;;4.88;1.38;;;16.70;75.80;;;;;;5078884;28;20048;-58
2023/05/24 06:04:49;;;;;;;8.63;1.70;;;16.60;76.60;;;;;;5053759;28;20032;-55
2023/05/24 06:07:16;;;;;;;4.90;1.80;;;16.50;75.60;;;;;;5077667;28;20551;-56
2023/05/24 06:09:43;;;;;;;4.60;1.70;;;16.50;77.70;;;;;;5057843;28;20604;-59
2023/05/24 06:12:11;;;;;;;8.38;1.73;;;16.40;82.50;;;;;;5070458;28;20401;-60
2023/05/24 06:14:38;;;;;;;8.30;2.30;;;16.50;84.20;;;;;;5073902;28;20041;-60
2023/05/24 06:17:06;;;;;;;6.60;1.98;;;16.50;84.50;;;;;;5072463;28;20035;-60
2023/05/24 06:19:34;;;;;;;5.55;2.35;;;16.50;84.50;;;;;;5081474;28;20025;-59
2023/05/24 06:22:01;;;;;;;3.65;1.83;;;16.30;85.70;;;;;;5059084;28;20392;-60
2023/05/24 06:24:29;;;;;;;4.90;1.70;;;16.20;86.10;;;;;;5074408;28;20031;-60
2023/05/24 06:26:57;;;;;;;6.93;2.00;;;16.00;90.20;;;;;;5079027;28;20077;-59
2023/05/24 06:29:25;;;;;;;6.53;2.22;;;15.90;91.10;;;;;;5074772;28;20477;-60
2023/05/24 06:31:52;;;;;;;5.03;1.58;;;15.80;90.50;;;;;;5071749;28;20040;-59
2023/05/24 06:34:20;;;;;;;7.10;2.40;;;15.70;92.30;;;;;;5078214;28;20683;-60
2023/05/24 06:36:49;;;;;;;3.55;1.50;;;15.50;93.10;;;;;;5061541;28;20140;-59
2023/05/24 06:39:17;;;;;;;8.27;1.92;;;15.30;95.20;;;;;;5078219;28;20055;-65
2023/05/24 06:41:45;;;;;;;6.35;2.00;;;15.10;95.50;;;;;;5072628;28;20476;-65
2023/05/24 06:44:13;;;;;;;5.43;1.50;;;15.10;98.00;;;;;;5081329;28;20036;-64
2023/05/24 06:46:41;;;;;;;9.50;2.22;;;15.10;98.40;;;;;;5060039;28;20023;-64
2023/05/24 06:49:08;;;;;;;6.85;1.95;;;14.90;99.00;;;;;;5070037;28;20056;-65
2023/05/24 06:51:37;;;;;;;5.20;1.58;;;14.60;99.50;;;;;;5074352;28;20020;-65
2023/05/24 06:54:04;;;;;;;5.72;1.95;;;14.40;99.90;;;;;;5079311;28;20043;-64
2023/05/24 06:56:32;;;;;;;6.15;1.73;;;14.30;99.90;;;;;;5075914;28;20085;-65
2023/05/24 06:59:00;;;;;;;6.07;1.50;;;14.10;99.90;;;;;;5067413;28;20025;-65
2023/05/24 07:01:28;;;;;;;6.65;2.45;;;13.80;99.90;;;;;;5072215;28;20043;-65
2023/05/24 07:03:55;;;;;;;4.75;1.88;;;13.60;99.90;;;;;;5051160;28;20028;-65
2023/05/24 07:06:23;;;;;;;5.28;1.52;;;13.40;99.90;;;;;;5052714;28;20123;-64
2023/05/24 07:08:51;;;;;;;6.63;1.80;;;13.20;99.90;;;;;;5055675;28;20082;-64
2023/05/24 07:11:18;;;;;;;6.00;1.70;;;13.00;99.90;;;;;;5077051;28;20024;-64
2023/05/24 07:13:46;;;;;;;5.97;1.98;;;12.80;99.90;;;;;;5078699;28;20080;-64
2023/05/24 07:16:13;;;;;;;3.97;1.70;;;12.60;99.90;;;;;;5058972;28;20029;-64
2023/05/24 07:18:41;;;;;;;13.77;4.15;;;12.50;99.90;;;;;;5075267;28;20091;-64
2023/05/24 07:21:08;;;;;;;8.70;3.97;;;12.30;99.90;;;;;;5083573;28;20016;-65
2023/05/24 07:23:36;;;;;;;7.60;2.40;;;12.20;99.90;;;;;;5076511;28;20107;-65
2023/05/24 07:26:05;;;;;;;8.20;2.83;;;12.10;99.90;;;;;;5087356;28;20027;-65
2023/05/24 07:28:36;;;;;;;12.98;6.30;;;12.00;99.90;;;;;;5089165;28;20499;-66
2023/05/24 07:31:04;;;;;;;6.57;2.58;;;11.80;99.90;;;;;;5083744;28;20032;-66
2023/05/24 07:33:31;;;;;;;6.82;1.77;;;11.70;99.90;;;;;;5065766;28;20473;-65
2023/05/24 07:35:59;;;;;;;12.90;6.40;;;11.60;99.90;;;;;;5075931;28;20031;-65
2023/05/24 07:38:28;;;;;;;19.65;7.57;;;11.50;99.90;;;;;;5073490;28;20388;-65
2023/05/24 07:40:56;;;;;;;17.10;6.88;;;11.40;99.90;;;;;;5077615;28;20017;-65
2023/05/24 07:43:23;;;;;;;13.23;5.03;;;11.40;99.90;;;;;;5091060;28;20074;-64
2023/05/24 07:45:50;;;;;;;8.82;4.28;;;11.30;99.90;;;;;;5079184;28;20544;-64
2023/05/24 07:48:18;;;;;;;49.95;18.30;;;11.20;99.90;;;;;;5083885;28;20031;-65
2023/05/24 07:50:47;;;;;;;146.80;48.78;;;11.10;99.90;;;;;;5075576;28;20033;-64
2023/05/24 07:53:15;;;;;;;28.90;12.68;;;11.00;99.90;;;;;;5081735;28;20116;-65
2023/05/24 07:55:45;;;;;;;145.30;47.10;;;11.00;99.90;;;;;;5060311;28;20040;-65
2023/05/24 07:58:13;;;;;;;25.55;11.00;;;11.00;99.90;;;;;;5087796;28;20024;-64
2023/05/24 08:00:41;;;;;;;11.70;5.25;;;10.90;99.90;;;;;;5078776;28;20033;-65
2023/05/24 08:03:12;;;;;;;12.23;4.10;;;10.90;99.90;;;;;;5079456;28;20484;-64
2023/05/24 08:05:39;;;;;;;10.85;4.35;;;10.80;99.90;;;;;;5073221;28;20025;-64
2023/05/24 08:08:07;;;;;;;19.10;5.97;;;10.80;99.90;;;;;;5078912;28;20021;-65
2023/05/24 08:10:34;;;;;;;23.85;8.52;;;10.80;99.90;;;;;;5075975;28;20020;-64
2023/05/24 08:13:03;;;;;;;14.27;4.00;;;10.70;99.90;;;;;;5077729;28;20105;-63
2023/05/24 08:15:31;;;;;;;22.30;8.27;;;10.60;99.90;;;;;;5072752;28;20031;-64
2023/05/24 08:17:58;;;;;;;16.27;5.70;;;10.60;99.90;;;;;;5061832;28;20028;-64
2023/05/24 08:20:26;;;;;;;14.00;5.03;;;10.70;99.90;;;;;;5076142;28;20035;-64
2023/05/24 08:22:53;;;;;;;22.58;3.75;;;10.70;99.90;;;;;;5078039;28;20921;-64
2023/05/24 08:25:21;;;;;;;10.18;3.78;;;10.70;99.90;;;;;;5085584;28;20028;-64
2023/05/24 08:27:48;;;;;;;13.15;3.35;;;10.70;99.90;;;;;;5077990;28;20028;-64
2023/05/24 08:30:16;;;;;;;12.88;3.58;;;10.70;99.90;;;;;;5074504;28;20098;-64
2023/05/24 08:32:43;;;;;;;10.40;2.85;;;10.60;99.90;;;;;;5073097;28;20020;-64
2023/05/24 08:35:11;;;;;;;10.23;3.00;;;10.60;99.90;;;;;;5074100;28;20075;-63
2023/05/24 08:37:38;;;;;;;11.20;3.22;;;10.50;99.90;;;;;;5083023;28;20016;-64
2023/05/24 08:40:08;;;;;;;8.13;2.47;;;10.50;99.90;;;;;;5078814;28;20376;-64
2023/05/24 08:42:39;;;;;;;34.85;14.05;;;10.50;99.90;;;;;;5078044;28;20025;-59
2023/05/24 08:45:14;;;;;;;52.85;21.58;;;10.50;99.90;;;;;;5078705;28;20031;-64
2023/05/24 08:47:42;;;;;;;86.22;36.38;;;10.40;99.90;;;;;;5078261;28;20376;-64
2023/05/24 08:50:10;;;;;;;14.63;4.68;;;10.30;99.90;;;;;;5076236;28;20070;-64
2023/05/24 08:52:38;;;;;;;7.07;3.35;;;10.10;99.90;;;;;;5078313;28;20040;-65
2023/05/24 08:55:06;;;;;;;10.98;2.83;;;10.10;99.90;;;;;;5082251;28;20044;-64
2023/05/24 08:57:38;;;;;;;9.52;3.15;;;10.00;99.90;;;;;;5083256;28;20033;-64
2023/05/24 09:00:10;;;;;;;17.65;4.65;;;10.00;99.90;;;;;;5081265;28;20032;-64
2023/05/24 09:02:42;;;;;;;18.15;6.50;;;10.10;99.90;;;;;;5075620;28;20024;-63
2023/05/24 09:05:15;;;;;;;24.20;4.13;;;10.10;99.90;;;;;;5082371;28;20032;-62
2023/05/24 09:07:44;;;;;;;16.40;4.20;;;10.10;99.90;;;;;;5072372;28;20545;-62
2023/05/24 09:10:12;;;;;;;19.15;4.53;;;10.10;99.90;;;;;;5069983;28;20027;-62
2023/05/24 09:12:44;;;;;;;11.70;3.33;;;10.10;99.90;;;;;;5071239;28;20028;-61
2023/05/24 09:15:12;;;;;;;30.75;4.38;;;10.00;99.90;;;;;;5074909;28;20044;-62
2023/05/24 09:17:40;;;;;;;11.30;3.45;;;10.00;99.90;;;;;;5051783;28;20035;-62
2023/05/24 09:20:09;;;;;;;8.73;2.88;;;10.10;99.90;;;;;;5069285;28;20481;-61
2023/05/24 09:22:37;;;;;;;8.68;3.63;;;10.00;99.90;;;;;;5049033;28;20016;-61
2023/05/24 09:25:07;;;;;;;9.55;3.58;;;10.00;99.90;;;;;;5056491;28;20024;-62
2023/05/24 09:27:35;;;;;;;13.45;4.10;;;9.90;99.90;;;;;;5070834;28;20073;-62
2023/05/24 09:30:07;;;;;;;12.82;5.72;;;9.90;99.90;;;;;;5079770;28;20086;-62
2023/05/24 09:32:35;;;;;;;16.95;3.67;;;9.90;99.90;;;;;;5069736;28;20020;-65
2023/05/24 09:35:02;;;;;;;20.65;5.10;;;9.90;99.90;;;;;;5073222;28;20047;-63
2023/05/24 09:37:30;;;;;;;15.43;3.78;;;9.80;99.90;;;;;;5076945;28;20020;-62
2023/05/24 09:39:57;;;;;;;11.95;4.78;;;9.80;99.90;;;;;;5082322;28;20028;-63
2023/05/24 09:42:29;;;;;;;10.38;4.88;;;9.80;99.90;;;;;;5069398;28;20035;-62
2023/05/24 09:45:08;;;;;;;15.23;4.75;;;9.70;99.90;;;;;;5057849;28;20766;-62
2023/05/24 09:47:40;;;;;;;10.65;4.00;;;9.70;99.90;;;;;;5067947;28;20040;-61
2023/05/24 09:50:17;;;;;;;15.18;4.13;;;9.60;99.90;;;;;;5083513;28;20668;-62
2023/05/24 09:52:45;;;;;;;9.82;3.30;;;9.70;99.90;;;;;;5077531;28;20062;-62
2023/05/24 09:55:20;;;;;;;12.30;2.88;;;9.90;99.90;;;;;;5083952;28;20252;-61
2023/05/24 09:57:52;;;;;;;9.32;3.20;;;10.00;99.90;;;;;;5080427;28;20128;-61
2023/05/24 10:00:23;;;;;;;15.73;3.35;;;10.30;99.90;;;;;;5081578;28;20042;-61
2023/05/24 10:03:09;;;;;;;14.95;4.22;;;10.30;99.90;;;;;;5076210;28;20475;-62
2023/05/24 10:05:38;;;;;;;11.75;3.53;;;10.20;99.90;;;;;;5080370;28;20070;-62
2023/05/24 10:08:05;;;;;;;16.02;4.38;;;10.00;99.90;;;;;;5073669;28;20103;-61
2023/05/24 10:10:34;;;;;;;19.83;3.95;;;9.90;99.90;;;;;;5075163;28;20028;-61
2023/05/24 10:13:02;;;;;;;24.73;5.97;;;10.00;99.90;;;;;;5072337;28;20497;-61
2023/05/24 10:15:30;;;;;;;27.20;4.57;;;10.20;99.90;;;;;;5069142;28;20032;-62
2023/05/24 10:18:00;;;;;;;26.13;6.05;;;10.20;99.90;;;;;;5076019;28;20036;-61
2023/05/24 10:20:28;;;;;;;20.15;6.65;;;10.10;99.90;;;;;;5057732;28;20031;-61
2023/05/24 10:23:00;;;;;;;18.48;5.53;;;10.00;99.90;;;;;;5071745;28;20032;-62
2023/05/24 10:25:29;;;;;;;20.88;6.22;;;9.80;99.90;;;;;;5072700;28;20559;-61
2023/05/24 10:28:03;;;;;;;18.45;6.45;;;9.80;99.90;;;;;;5066665;28;20081;-59
2023/05/24 10:30:33;;;;;;;;;;;9.80;99.90;;;;;;5069116;28;20486;-59
2023/05/24 10:33:03;;;;;;;15.73;6.43;;;9.80;99.90;;;;;;5073136;28;20325;-60
2023/05/24 10:35:32;;;;;;;29.35;5.65;;;9.60;99.90;;;;;;5057547;28;20039;-61
2023/05/24 10:38:05;;;;;;;22.50;6.03;;;9.50;99.90;;;;;;5071351;28;20028;-62
2023/05/24 10:40:33;;;;;;;21.67;7.78;;;9.30;99.90;;;;;;5057437;28;20039;-61
2023/05/24 10:43:07;;;;;;;16.00;6.63;;;9.00;99.90;;;;;;5073915;28;20035;-60
2023/05/24 10:45:38;;;;;;;21.23;7.20;;;8.80;99.90;;;;;;5076646;28;20387;-61
2023/05/24 10:48:17;;;;;;;13.30;5.20;;;8.60;99.90;;;;;;5076215;28;20467;-62
2023/05/24 10:50:46;;;;;;;23.70;5.07;;;8.40;99.90;;;;;;5070472;28;20024;-61
2023/05/24 10:53:17;;;;;;;23.92;6.32;;;8.30;99.90;;;;;;5077351;28;20278;-62
2023/05/24 10:55:56;;;;;;;15.98;5.45;;;8.10;99.90;;;;;;5057526;28;20029;-61
2023/05/24 10:58:29;;;;;;;25.40;5.68;;;8.00;99.90;;;;;;5074807;28;20374;-62
2023/05/24 11:00:56;;;;;;;24.67;6.35;;;7.90;99.90;;;;;;5081197;28;20473;-61
2023/05/24 11:03:24;;;;;;;18.83;5.43;;;7.80;99.90;;;;;;5085096;28;20098;-61
2023/05/24 11:05:54;;;;;;;15.73;5.60;;;7.70;99.90;;;;;;5062657;28;20035;-61
2023/05/24 11:08:32;;;;;;;23.80;6.60;;;7.70;99.90;;;;;;5075187;28;20016;-62
2023/05/24 11:11:08;;;;;;;17.30;5.65;;;7.70;99.90;;;;;;5071925;28;20033;-61
2023/05/24 11:13:38;;;;;;;16.27;5.38;;;7.60;99.90;;;;;;5074292;28;20103;-62
2023/05/24 11:16:06;;;;;;;30.63;6.50;;;7.60;99.90;;;;;;5080904;28;20035;-62
2023/05/24 11:18:38;;;;;;;17.38;5.25;;;7.50;99.90;;;;;;5081422;28;20020;-61
2023/05/24 11:21:09;;;;;;;28.20;5.70;;;7.50;99.90;;;;;;5074241;28;20020;-61
2023/05/24 11:23:37;;;;;;;24.55;4.90;;;7.40;99.90;;;;;;5075286;28;20028;-61
2023/05/24 11:26:06;;;;;;;27.98;6.38;;;7.30;99.90;;;;;;5084795;28;20497;-61
2023/05/24 11:28:36;;;;;;;29.02;6.78;;;7.20;99.90;;;;;;5056253;28;20039;-61
2023/05/24 11:31:08;;;;;;;20.90;5.70;;;7.10;99.90;;;;;;5073796;28;20033;-61
2023/05/24 11:33:41;;;;;;;22.83;5.25;;;7.10;99.90;;;;;;5056312;28;20040;-62
2023/05/24 11:36:09;;;;;;;28.00;6.50;;;7.00;99.90;;;;;;5073038;28;20047;-61
2023/05/24 11:38:37;;;;;;;21.60;5.70;;;7.00;99.90;;;;;;5089692;28;20080;-62
2023/05/24 11:41:06;;;;;;;27.52;6.78;;;6.90;99.90;;;;;;5073650;28;20139;-61
2023/05/24 11:43:33;;;;;;;35.00;8.43;;;6.90;99.90;;;;;;5081195;28;20036;-60
2023/05/24 11:46:01;;;;;;;23.10;6.80;;;6.80;99.90;;;;;;5075944;28;20028;-61
2023/05/24 11:48:29;;;;;;;19.50;6.30;;;6.80;99.90;;;;;;5075887;28;20025;-60
2023/05/24 11:50:58;;;;;;;15.00;5.30;;;6.80;99.90;;;;;;5074420;28;20029;-60
2023/05/24 11:53:26;;;;;;;14.90;5.18;;;6.70;99.90;;;;;;5070451;28;20155;-60
2023/05/24 11:55:54;;;;;;;12.50;5.15;;;6.70;99.90;;;;;;5076152;28;20078;-61
2023/05/24 11:58:22;;;;;;;17.33;4.70;;;6.60;99.90;;;;;;5074841;28;20027;-60
2023/05/24 12:00:51;;;;;;;17.63;4.88;;;6.60;99.90;;;;;;5071967;28;20195;-61
2023/05/24 12:03:19;;;;;;;19.65;4.60;;;6.50;99.90;;;;;;5080196;28;20024;-61
2023/05/24 12:05:46;;;;;;;11.63;3.72;;;6.50;99.90;;;;;;5055101;28;20033;-61
2023/05/24 12:08:17;;;;;;;13.25;4.55;;;6.50;99.90;;;;;;5080950;28;20674;-59
2023/05/24 12:10:45;;;;;;;18.20;5.30;;;6.40;99.90;;;;;;5072818;28;20024;-59
2023/05/24 12:13:25;;;;;;;12.38;4.38;;;6.40;99.90;;;;;;5058390;28;20980;-59
2023/05/24 12:15:56;;;;;;;18.17;4.97;;;6.40;99.90;;;;;;5077715;28;20103;-59
2023/05/24 12:18:25;;;;;;;14.38;5.10;;;6.40;99.90;;;;;;5079306;28;20025;-59
2023/05/24 12:20:53;;;;;;;14.30;5.57;;;6.40;99.90;;;;;;5075617;28;20565;-63
2023/05/24 12:23:24;;;;;;;16.77;5.25;;;6.30;99.90;;;;;;5072704;28;20396;-59
2023/05/24 12:25:56;;;;;;;23.20;5.00;;;6.30;99.90;;;;;;5082586;28;20040;-60
2023/05/24 12:28:24;;;;;;;34.65;6.70;;;6.40;99.90;;;;;;5072486;28;20021;-62
2023/05/24 12:30:52;;;;;;;32.35;6.07;;;6.40;99.90;;;;;;5078962;28;20026;-60
2023/05/24 12:33:20;;;;;;;31.42;6.55;;;6.40;99.90;;;;;;5079102;28;20127;-60
2023/05/24 12:35:48;;;;;;;18.95;5.13;;;6.40;99.90;;;;;;5079850;28;20111;-59
2023/05/24 12:38:24;;;;;;;22.90;6.10;;;6.40;99.90;;;;;;5074457;28;20032;-60
2023/05/24 12:40:54;;;;;;;12.23;4.32;;;6.30;99.90;;;;;;5085431;28;20023;-60
2023/05/24 12:43:22;;;;;;;19.15;5.50;;;6.30;99.90;;;;;;5072492;28;20099;-60
2023/05/24 12:45:50;;;;;;;18.05;4.93;;;6.30;99.90;;;;;;5084512;28;20028;-59
2023/05/24 12:48:18;;;;;;;16.98;5.15;;;6.20;99.90;;;;;;5072071;28;20029;-59
2023/05/24 12:50:46;;;;;;;21.88;5.65;;;6.10;99.90;;;;;;5070459;28;20031;-60
2023/05/24 12:53:13;;;;;;;14.93;4.40;;;6.10;99.90;;;;;;5086368;28;20051;-60
2023/05/24 12:55:41;;;;;;;10.23;4.25;;;6.00;99.90;;;;;;5086448;28;20024;-60